Time;durP1;ratioP1;P1;durP2;ratioP2;P2;SDS_P1;SDS_P2;PMS_P1;PMS_P2;Temp;Humidity;BMP_temperature;BMP_pressure;BME280_temperature;BME280_humidity;BME280_pressure;Samples;Min_cycle;Max_cycle;Signal;HPM_P1;HPM_P2
2023/12/15 00:01:16;;;;;;;63.70;36.85;;;;;;;6.00;100.00;100170.06;5010471;28;20105;-70
2023/12/15 00:03:42;;;;;;;59.42;36.00;;;;;;;6.06;100.00;100166.94;5010853;28;20109;-69
2023/12/15 00:06:08;;;;;;;54.88;34.55;;;;;;;6.13;100.00;100164.75;5010665;28;20022;-70
2023/12/15 00:08:33;;;;;;;56.38;32.80;;;;;;;6.23;100.00;100186.63;5010532;28;20091;-70
2023/12/15 00:10:59;;;;;;;53.30;32.85;;;;;;;6.16;100.00;100164.03;5010570;28;20032;-70
2023/12/15 00:13:25;;;;;;;59.40;33.95;;;;;;;6.25;100.00;100176.44;5010528;28;20643;-69
2023/12/15 00:15:50;;;;;;;52.75;31.08;;;;;;;6.33;100.00;100185.38;5010167;28;20057;-69
2023/12/15 00:18:16;;;;;;;51.90;31.88;;;;;;;6.06;100.00;100136.19;5008372;28;20415;-70
2023/12/15 00:20:42;;;;;;;52.35;31.75;;;;;;;6.37;100.00;100184.72;5010651;28;20034;-69
2023/12/15 00:23:08;;;;;;;52.83;32.92;;;;;;;6.14;100.00;100138.34;5010413;28;20087;-69
2023/12/15 00:25:33;;;;;;;56.75;34.38;;;;;;;6.38;100.00;100180.47;5008676;28;20038;-70
2023/12/15 00:27:59;;;;;;;52.60;34.42;;;;;;;6.33;100.00;100198.22;5010219;28;20026;-70
2023/12/15 00:30:24;;;;;;;54.38;32.65;;;;;;;6.42;100.00;100203.78;5010228;28;20030;-69
2023/12/15 00:32:50;;;;;;;49.35;33.38;;;;;;;6.50;100.00;100199.00;5010417;28;20057;-69
2023/12/15 00:35:15;;;;;;;56.38;33.80;;;;;;;6.52;100.00;100204.22;5010572;28;20029;-69
2023/12/15 00:37:41;;;;;;;54.38;33.10;;;;;;;6.53;100.00;100216.22;5012991;28;20037;-69
2023/12/15 00:40:09;;;;;;;53.60;32.78;;;;;;;6.55;100.00;100225.75;5013908;28;20033;-70
2023/12/15 00:42:34;;;;;;;55.63;35.35;;;;;;;6.47;100.00;100230.53;5014158;28;20442;-69
2023/12/15 00:45:00;;;;;;;57.30;36.08;;;;;;;6.47;100.00;100227.97;5012975;28;20021;-70
2023/12/15 00:47:25;;;;;;;55.92;34.63;;;;;;;6.52;100.00;100246.16;5013801;28;20026;-70
2023/12/15 00:49:51;;;;;;;54.28;34.50;;;;;;;6.45;100.00;100237.25;5013415;28;20025;-70
2023/12/15 00:52:16;;;;;;;57.83;34.70;;;;;;;6.21;100.00;100195.91;5013798;28;20092;-70
2023/12/15 00:54:42;;;;;;;55.05;34.47;;;;;;;6.57;100.00;100252.38;5027559;28;20045;-70
2023/12/15 00:57:09;;;;;;;58.72;36.90;;;;;;;6.54;100.00;100252.25;5013563;28;20120;-70
2023/12/15 00:59:35;;;;;;;63.53;36.22;;;;;;;6.37;100.00;100222.28;5012941;28;20041;-70
2023/12/15 01:02:00;;;;;;;58.35;35.92;;;;;;;6.24;100.00;100201.19;5011955;28;20038;-70
2023/12/15 01:04:26;;;;;;;55.40;34.53;;;;;;;6.53;100.00;100260.72;5013481;28;20105;-70
2023/12/15 01:06:51;;;;;;;55.95;33.75;;;;;;;6.45;100.00;100256.91;5000094;28;20030;-70
2023/12/15 01:09:17;;;;;;;54.38;33.85;;;;;;;6.50;100.00;100280.22;5012998;28;20029;-70
2023/12/15 01:11:42;;;;;;;49.38;31.73;;;;;;;6.51;100.00;100279.41;5027295;28;20397;-70
2023/12/15 01:14:08;;;;;;;48.17;32.83;;;;;;;6.39;100.00;100262.63;5013288;28;20468;-70
2023/12/15 01:16:33;;;;;;;45.08;28.88;;;;;;;6.52;100.00;100274.34;5008272;28;20519;-70
2023/12/15 01:18:59;;;;;;;48.00;30.83;;;;;;;6.51;100.00;100276.84;5006749;28;20041;-71
2023/12/15 01:21:26;;;;;;;41.10;25.33;;;;;;;6.50;100.00;100275.09;5000711;28;20088;-70
2023/12/15 01:23:51;;;;;;;33.90;21.00;;;;;;;6.48;100.00;100287.84;4995054;28;20026;-70
2023/12/15 01:26:18;;;;;;;30.50;18.88;;;;;;;6.55;100.00;100287.31;5009288;28;20033;-70
2023/12/15 01:28:43;;;;;;;27.63;17.92;;;;;;;6.66;100.00;100293.00;5013182;28;20109;-70
2023/12/15 01:31:09;;;;;;;21.98;15.15;;;;;;;6.75;100.00;100293.47;5011123;28;20176;-70
2023/12/15 01:33:34;;;;;;;24.30;15.23;;;;;;;6.78;100.00;100297.88;5012807;28;20030;-70
2023/12/15 01:36:01;;;;;;;18.95;12.98;;;;;;;6.82;100.00;100292.06;5007243;28;20030;-71
2023/12/15 01:38:27;;;;;;;21.65;13.02;;;;;;;6.87;100.00;100300.88;5011777;28;20022;-71
2023/12/15 01:40:53;;;;;;;17.92;11.98;;;;;;;6.87;100.00;100295.75;5009294;28;20018;-70
2023/12/15 01:43:18;;;;;;;19.27;12.45;;;;;;;6.76;100.00;100289.19;5010468;28;20105;-70
2023/12/15 01:45:44;;;;;;;23.17;14.50;;;;;;;6.52;100.00;100245.25;5012590;28;20080;-70
2023/12/15 01:48:10;;;;;;;19.58;11.73;;;;;;;6.94;100.00;100291.78;5008638;28;20041;-71
2023/12/15 01:50:36;;;;;;;16.50;11.73;;;;;;;7.03;100.00;100296.47;5006610;28;20025;-70
2023/12/15 01:53:02;;;;;;;15.30;10.23;;;;;;;7.08;100.00;100297.59;5011905;28;20026;-71
2023/12/15 01:55:28;;;;;;;14.27;9.27;;;;;;;6.94;100.00;100300.38;5008439;28;20028;-70
2023/12/15 01:57:53;;;;;;;16.17;9.50;;;;;;;7.03;100.00;100311.88;5007607;28;20018;-70
2023/12/15 02:00:19;;;;;;;13.75;7.88;;;;;;;7.15;100.00;100315.03;5004416;28;20030;-70
2023/12/15 02:02:44;;;;;;;10.93;6.65;;;;;;;7.18;100.00;100310.06;5005697;28;21598;-70
2023/12/15 02:05:10;;;;;;;11.98;6.70;;;;;;;7.16;100.00;100314.22;5003440;28;20120;-70
2023/12/15 02:07:35;;;;;;;11.27;6.95;;;;;;;7.16;100.00;100315.94;5009396;28;20033;-70
2023/12/15 02:10:01;;;;;;;11.00;6.47;;;;;;;6.99;100.00;100295.47;5012293;28;20449;-70
2023/12/15 02:12:27;;;;;;;11.02;6.13;;;;;;;7.07;100.00;100322.38;5012019;28;20026;-70
2023/12/15 02:14:53;;;;;;;9.85;5.75;;;;;;;7.19;100.00;100332.38;5011943;28;20091;-70
2023/12/15 02:17:18;;;;;;;9.10;5.50;;;;;;;6.85;100.00;100263.13;5012110;28;20062;-70
2023/12/15 02:19:44;;;;;;;10.80;5.30;;;;;;;7.18;100.00;100324.56;5011823;28;20092;-70
2023/12/15 02:22:09;;;;;;;8.32;5.25;;;;;;;7.18;100.00;100319.44;5011970;28;20108;-70
2023/12/15 02:24:35;;;;;;;8.27;5.63;;;;;;;7.15;100.00;100316.75;5011903;28;20141;-70
2023/12/15 02:27:00;;;;;;;8.82;5.28;;;;;;;7.16;100.00;100321.06;5011707;28;20030;-70
2023/12/15 02:29:27;;;;;;;10.20;5.25;;;;;;;7.18;100.00;100320.34;5011807;28;20152;-70
2023/12/15 02:31:54;;;;;;;10.35;6.10;;;;;;;7.14;100.00;100331.28;5012019;28;20033;-69
2023/12/15 02:34:20;;;;;;;9.57;5.80;;;;;;;7.17;100.00;100331.41;5011829;28;20037;-70
2023/12/15 02:36:46;;;;;;;10.18;5.70;;;;;;;7.09;100.00;100333.59;5012228;28;20464;-70
2023/12/15 02:39:11;;;;;;;8.25;5.22;;;;;;;7.15;100.00;100335.56;5011549;28;20029;-70
2023/12/15 02:41:37;;;;;;;9.60;6.10;;;;;;;7.11;100.00;100341.38;5011616;28;20030;-70
2023/12/15 02:44:02;;;;;;;9.15;5.38;;;;;;;7.10;100.00;100355.00;5011858;28;20053;-69
2023/12/15 02:46:28;;;;;;;10.82;6.53;;;;;;;7.09;100.00;100378.91;5011542;28;20026;-70
2023/12/15 02:48:53;;;;;;;11.43;7.18;;;;;;;7.10;100.00;100372.97;5011427;28;20026;-70
2023/12/15 02:51:29;;;;;;;10.63;7.00;;;;;;;7.11;100.00;100369.63;5011550;28;20124;-70
2023/12/15 02:53:58;;;;;;;10.75;6.68;;;;;;;7.14;100.00;100377.47;5011609;28;20038;-70
2023/12/15 02:56:24;;;;;;;10.68;6.97;;;;;;;6.90;100.00;100341.19;5011292;28;20407;-70
2023/12/15 02:58:49;;;;;;;10.20;6.88;;;;;;;7.18;100.00;100387.09;5010784;28;20033;-70
2023/12/15 03:01:15;;;;;;;13.43;7.00;;;;;;;7.21;100.00;100384.66;5011280;28;20033;-70
2023/12/15 03:03:41;;;;;;;9.20;6.30;;;;;;;7.24;100.00;100391.63;5011186;28;20030;-70
2023/12/15 03:06:06;;;;;;;10.95;6.75;;;;;;;6.89;100.00;100330.06;5011226;28;20054;-70
2023/12/15 03:08:32;;;;;;;11.70;6.65;;;;;;;7.23;100.00;100406.16;5011103;28;20109;-70
2023/12/15 03:10:57;;;;;;;15.57;8.27;;;;;;;7.19;100.00;100408.50;5011053;28;20026;-70
2023/12/15 03:13:28;;;;;;;15.00;9.60;;;;;;;7.05;100.00;100392.41;5011241;28;20111;-70
2023/12/15 03:15:54;;;;;;;119.80;64.03;;;;;;;7.23;100.00;100410.44;5010922;28;20030;-70
2023/12/15 03:18:19;;;;;;;44.00;24.00;;;;;;;7.26;100.00;100411.47;5010889;28;20561;-70
2023/12/15 03:20:45;;;;;;;20.20;12.45;;;;;;;7.17;100.00;100402.44;5010974;28;20062;-70
2023/12/15 03:23:11;;;;;;;14.80;9.00;;;;;;;7.19;100.00;100400.78;5010835;28;20092;-70
2023/12/15 03:25:36;;;;;;;11.25;7.03;;;;;;;7.28;100.00;100404.69;5010740;28;20197;-70
2023/12/15 03:28:02;;;;;;;18.15;10.57;;;;;;;7.36;100.00;100427.31;5011069;28;20037;-70
2023/12/15 03:30:27;;;;;;;20.83;12.00;;;;;;;7.29;100.00;100426.16;5008840;28;20073;-70
2023/12/15 03:32:53;;;;;;;15.88;10.15;;;;;;;7.33;100.00;100434.84;5010887;28;20510;-70
2023/12/15 03:35:19;;;;;;;15.63;9.63;;;;;;;7.23;100.00;100421.56;5010840;28;20029;-70
2023/12/15 03:37:45;;;;;;;14.07;8.15;;;;;;;6.96;100.00;100373.16;5010701;28;20036;-70
2023/12/15 03:40:11;;;;;;;14.20;8.15;;;;;;;7.34;100.00;100437.53;5010558;28;20493;-70
2023/12/15 03:42:37;;;;;;;15.43;8.95;;;;;;;7.33;100.00;100442.56;5010553;28;20412;-70
2023/12/15 03:45:04;;;;;;;14.13;8.52;;;;;;;7.34;100.00;100452.03;5010882;28;20029;-70
2023/12/15 03:47:30;;;;;;;13.50;8.02;;;;;;;7.16;100.00;100440.03;5010777;28;20129;-70
2023/12/15 03:49:55;;;;;;;11.40;7.50;;;;;;;7.27;100.00;100463.69;5010957;28;20131;-70
2023/12/15 03:52:21;;;;;;;11.18;7.45;;;;;;;7.17;100.00;100464.91;5010735;28;20061;-70
2023/12/15 03:54:46;;;;;;;11.80;7.72;;;;;;;7.09;100.00;100466.19;5010393;28;20034;-70
2023/12/15 03:57:11;;;;;;;13.55;8.25;;;;;;;7.11;100.00;100470.59;5010498;28;20084;-70
2023/12/15 03:59:40;;;;;;;12.00;8.10;;;;;;;7.05;100.00;100459.16;5010545;28;20116;-70
2023/12/15 04:02:06;;;;;;;11.07;7.25;;;;;;;7.09;100.00;100490.19;5010647;28;20034;-71
2023/12/15 04:04:34;;;;;;;11.88;8.65;;;;;;;7.08;100.00;100479.88;5010477;28;20033;-70
2023/12/15 04:07:00;;;;;;;16.58;9.98;;;;;;;7.17;100.00;100497.41;5010435;28;20034;-70
2023/12/15 04:09:25;;;;;;;14.07;9.68;;;;;;;7.17;100.00;100489.72;5010436;28;20034;-70
2023/12/15 04:11:51;;;;;;;13.38;9.30;;;;;;;6.89;100.00;100442.09;5013335;28;20108;-70
2023/12/15 04:14:17;;;;;;;14.68;8.82;;;;;;;6.85;100.00;100446.19;5014305;28;20040;-70
2023/12/15 04:16:43;;;;;;;13.50;9.10;;;;;;;7.18;100.00;100497.50;5014093;28;20104;-70
2023/12/15 04:19:09;;;;;;;13.80;9.13;;;;;;;7.19;100.00;100504.41;5014354;28;20025;-70
2023/12/15 04:21:34;;;;;;;15.00;9.75;;;;;;;7.09;100.00;100479.94;5014232;28;20030;-70
2023/12/15 04:24:00;;;;;;;15.98;10.75;;;;;;;7.28;100.00;100507.41;5014379;28;20459;-70
2023/12/15 04:26:25;;;;;;;16.90;11.18;;;;;;;7.03;100.00;100453.94;5012178;28;20042;-70
2023/12/15 04:28:51;;;;;;;15.80;11.23;;;;;;;7.08;100.00;100469.59;5012583;28;20049;-70
2023/12/15 04:31:17;;;;;;;19.05;12.25;;;;;;;7.37;100.00;100509.56;5014204;28;20542;-70
2023/12/15 04:33:43;;;;;;;18.52;12.30;;;;;;;7.38;100.00;100511.34;5014001;28;20030;-70
2023/12/15 04:36:09;;;;;;;18.88;12.00;;;;;;;7.37;100.00;100511.28;5013984;28;20022;-70
2023/12/15 04:38:35;;;;;;;19.75;13.20;;;;;;;7.38;100.00;100507.91;5013911;28;20041;-70
2023/12/15 04:41:01;;;;;;;16.33;11.55;;;;;;;7.38;100.00;100524.19;5014075;28;20034;-70
2023/12/15 04:43:27;;;;;;;19.00;12.27;;;;;;;7.26;100.00;100500.44;5013997;28;20029;-70
2023/12/15 04:45:52;;;;;;;16.13;11.20;;;;;;;7.36;100.00;100519.78;5013808;28;20037;-70
2023/12/15 04:48:17;;;;;;;20.58;12.27;;;;;;;7.35;100.00;100535.97;5013730;28;20034;-70
2023/12/15 04:50:43;;;;;;;17.58;12.05;;;;;;;7.02;100.00;100488.13;5011759;28;20416;-70
2023/12/15 04:53:08;;;;;;;22.30;14.40;;;;;;;7.25;100.00;100538.09;5013758;28;20404;-70
2023/12/15 04:55:34;;;;;;;22.67;14.00;;;;;;;7.24;100.00;100548.25;5013737;28;20030;-70
2023/12/15 04:58:00;;;;;;;22.60;13.70;;;;;;;7.18;100.00;100548.84;5011929;28;20040;-70
2023/12/15 05:00:26;;;;;;;22.58;14.52;;;;;;;7.28;100.00;100569.06;5013446;28;20112;-69
2023/12/15 05:02:51;;;;;;;18.88;12.68;;;;;;;7.31;100.00;100577.72;5012802;28;20113;-70
2023/12/15 05:05:18;;;;;;;18.63;13.13;;;;;;;7.32;100.00;100580.38;5013230;28;20423;-69
2023/12/15 05:07:44;;;;;;;17.92;10.77;;;;;;;7.32;100.00;100590.63;5013407;28;20034;-69
2023/12/15 05:10:10;;;;;;;14.15;8.48;;;;;;;7.32;100.00;100585.50;5012988;28;20040;-69
2023/12/15 05:12:36;;;;;;;10.77;6.95;;;;;;;7.26;100.00;100585.19;5013162;28;20033;-69
2023/12/15 05:15:03;;;;;;;12.57;6.35;;;;;;;7.25;100.00;100588.53;5013241;28;20449;-69
2023/12/15 05:17:29;;;;;;;10.60;6.47;;;;;;;7.24;100.00;100592.81;5013243;28;20784;-69
2023/12/15 05:19:54;;;;;;;9.15;6.18;;;;;;;6.99;100.00;100554.72;5012936;28;20120;-69
2023/12/15 05:22:20;;;;;;;9.70;6.45;;;;;;;7.17;100.00;100595.84;5012527;28;20109;-69
2023/12/15 05:24:45;;;;;;;9.40;6.22;;;;;;;7.12;100.00;100594.75;4994435;28;20038;-69
2023/12/15 05:27:11;;;;;;;8.20;5.40;;;;;;;7.12;100.00;100595.59;5009031;28;20039;-69
2023/12/15 05:29:45;;;;;;;8.02;5.05;;;;;;;7.13;100.00;100604.22;5013299;28;20034;-69
2023/12/15 05:32:21;;;;;;;10.93;7.13;;;;;;;7.13;100.00;100617.91;5030257;28;20056;-70
2023/12/15 05:34:47;;;;;;;11.65;7.32;;;;;;;7.12;100.00;100628.97;5011231;28;20081;-69
2023/12/15 05:37:13;;;;;;;9.45;6.72;;;;;;;7.08;100.00;100629.63;5010548;28;20045;-70
2023/12/15 05:39:42;;;;;;;11.85;9.65;;;;;;;6.77;100.00;100584.34;4998363;28;20038;-69
2023/12/15 05:42:07;;;;;;;8.43;6.28;;;;;;;7.09;100.00;100648.47;5007701;28;20037;-70
2023/12/15 05:44:33;;;;;;;5.78;4.13;;;;;;;7.09;100.00;100638.19;4993877;28;20042;-70
2023/12/15 05:46:58;;;;;;;6.38;3.92;;;;;;;7.04;100.00;100640.53;5008894;28;20877;-70
2023/12/15 05:49:24;;;;;;;7.45;4.47;;;;;;;7.11;100.00;100659.72;5009820;28;20053;-69
2023/12/15 05:51:49;;;;;;;8.95;4.97;;;;;;;7.13;100.00;100661.56;5010195;28;20471;-69
2023/12/15 05:54:15;;;;;;;10.60;5.78;;;;;;;7.17;100.00;100665.19;5010310;28;20412;-69
2023/12/15 05:56:41;;;;;;;9.25;5.35;;;;;;;7.14;100.00;100662.47;4994313;28;20571;-70
2023/12/15 05:59:06;;;;;;;8.25;5.07;;;;;;;7.11;100.00;100655.44;5005715;28;20049;-71
2023/12/15 06:01:32;;;;;;;9.10;5.63;;;;;;;7.10;100.00;100657.94;5010506;28;20088;-71
2023/12/15 06:03:58;;;;;;;13.73;5.20;;;;;;;7.01;100.00;100649.75;4996712;28;20551;-69
2023/12/15 06:06:23;;;;;;;7.95;4.70;;;;;;;7.02;100.00;100642.13;4993304;28;20074;-69
2023/12/15 06:08:50;;;;;;;8.65;5.25;;;;;;;7.11;100.00;100672.56;4993173;28;20066;-70
2023/12/15 06:11:15;;;;;;;8.05;5.65;;;;;;;7.15;100.00;100671.03;4993118;28;20030;-69
2023/12/15 06:13:41;;;;;;;11.70;5.63;;;;;;;7.16;100.00;100681.38;4993013;28;20027;-71
2023/12/15 06:16:08;;;;;;;8.80;5.15;;;;;;;6.91;100.00;100651.81;4992451;28;20583;-71
2023/12/15 06:18:33;;;;;;;17.35;4.90;;;;;;;7.01;100.00;100665.16;5003369;28;20516;-71
2023/12/15 06:20:59;;;;;;;7.78;4.18;;;;;;;7.08;100.00;100693.81;4996518;28;20053;-71
2023/12/15 06:23:24;;;;;;;8.50;4.22;;;;;;;7.03;100.00;100678.94;5006275;28;20108;-70
2023/12/15 06:25:50;;;;;;;8.50;4.32;;;;;;;6.81;100.00;100649.56;5011731;28;20018;-69
2023/12/15 06:28:15;;;;;;;10.98;4.05;;;;;;;7.12;100.00;100697.44;5008196;28;20076;-70
2023/12/15 06:30:41;;;;;;;6.78;3.53;;;;;;;7.04;100.00;100696.13;5010322;28;20121;-69
2023/12/15 06:33:06;;;;;;;8.35;4.50;;;;;;;6.70;100.00;100655.78;5011467;28;20431;-71
2023/12/15 06:35:32;;;;;;;22.63;17.85;;;;;;;6.85;100.00;100682.28;5006676;28;20026;-70
2023/12/15 06:37:58;;;;;;;32.90;26.83;;;;;;;6.91;100.00;100708.28;4998935;28;20034;-70
2023/12/15 06:40:23;;;;;;;17.90;13.15;;;;;;;6.87;100.00;100710.59;4992714;28;20156;-70
2023/12/15 06:42:49;;;;;;;14.52;8.90;;;;;;;6.87;100.00;100716.63;4993904;28;20465;-69
2023/12/15 06:45:14;;;;;;;9.15;5.38;;;;;;;6.86;100.00;100719.97;4993123;28;20404;-70
2023/12/15 06:47:40;;;;;;;8.90;4.93;;;;;;;6.85;100.00;100725.91;4993832;28;20109;-70
2023/12/15 06:50:06;;;;;;;8.02;4.88;;;;;;;6.89;100.00;100738.13;5002097;28;20370;-69
2023/12/15 06:52:34;;;;;;;8.75;5.28;;;;;;;6.92;100.00;100738.28;5007177;28;20456;-70
2023/12/15 06:55:01;;;;;;;10.50;5.35;;;;;;;6.91;100.00;100739.06;4992457;28;20034;-70
2023/12/15 06:57:26;;;;;;;9.13;5.30;;;;;;;6.94;100.00;100740.94;5004715;28;20464;-69
2023/12/15 06:59:52;;;;;;;10.30;5.82;;;;;;;6.62;100.00;100686.13;5003906;28;20060;-69
2023/12/15 07:02:17;;;;;;;10.90;5.70;;;;;;;6.75;100.00;100698.88;5011040;28;20104;-69
2023/12/15 07:04:43;;;;;;;10.90;6.63;;;;;;;7.10;100.00;100750.38;5010858;28;20038;-69
2023/12/15 07:07:09;;;;;;;11.27;8.05;;;;;;;7.03;100.00;100746.59;5010983;28;20476;-69
2023/12/15 07:09:35;;;;;;;9.57;7.25;;;;;;;7.10;100.00;100769.25;5011137;28;20026;-69
2023/12/15 07:12:01;;;;;;;11.48;7.13;;;;;;;7.14;100.00;100770.31;5010953;28;20034;-69
2023/12/15 07:14:26;;;;;;;10.05;6.93;;;;;;;7.22;100.00;100773.28;5011023;28;20079;-70
2023/12/15 07:16:52;;;;;;;11.63;7.20;;;;;;;7.15;100.00;100758.34;5010771;28;20046;-69
2023/12/15 07:19:17;;;;;;;9.77;6.57;;;;;;;7.27;100.00;100792.41;5024852;28;20034;-69
2023/12/15 07:21:43;;;;;;;8.90;5.80;;;;;;;7.25;100.00;100797.47;5010809;28;20034;-69
2023/12/15 07:24:08;;;;;;;7.05;4.65;;;;;;;7.13;100.00;100804.47;5010877;28;20072;-69
2023/12/15 07:26:34;;;;;;;8.10;5.68;;;;;;;7.07;100.00;100783.59;5009568;28;20484;-69
2023/12/15 07:28:59;;;;;;;9.13;6.25;;;;;;;7.01;100.00;100789.25;5010027;28;20513;-70
2023/12/15 07:31:25;;;;;;;10.52;6.38;;;;;;;7.08;100.00;100785.38;5010776;28;20034;-69
2023/12/15 07:33:50;;;;;;;9.40;5.93;;;;;;;7.14;100.00;100790.84;5010976;28;20037;-69
2023/12/15 07:36:17;;;;;;;22.83;13.20;;;;;;;7.22;100.00;100797.28;5011116;28;20373;-70
2023/12/15 07:38:42;;;;;;;35.85;22.58;;;;;;;7.29;100.00;100811.34;5010625;28;20026;-69
2023/12/15 07:41:08;;;;;;;34.05;22.00;;;;;;;7.02;100.00;100767.03;5010758;28;20041;-70
2023/12/15 07:43:34;;;;;;;22.50;13.27;;;;;;;7.00;100.00;100774.63;5010721;28;20022;-70
2023/12/15 07:45:59;;;;;;;22.60;14.52;;;;;;;7.29;100.00;100830.22;5010178;28;20030;-70
2023/12/15 07:48:26;;;;;;;15.00;9.15;;;;;;;7.33;100.00;100838.06;5010986;28;20066;-69
2023/12/15 07:50:54;;;;;;;10.98;7.63;;;;;;;7.21;100.00;100818.59;5010593;28;20408;-69
2023/12/15 07:53:19;;;;;;;17.38;8.20;;;;;;;7.24;100.00;100838.44;5010739;28;20030;-69
2023/12/15 07:55:45;;;;;;;13.07;8.68;;;;;;;7.10;100.00;100820.59;5010543;28;20037;-69
2023/12/15 07:58:10;;;;;;;23.80;12.40;;;;;;;7.22;100.00;100843.50;5010458;28;20083;-69
2023/12/15 08:00:35;;;;;;;21.10;11.65;;;;;;;6.91;100.00;100804.94;5010540;28;20021;-69
2023/12/15 08:06:23;;;;;;;30.25;14.25;;;;;;;6.97;100.00;100851.50;5108867;23;20061;-69
2023/12/15 08:08:49;;;;;;;30.80;13.27;;;;;;;6.71;100.00;100808.94;5010667;28;20034;-69
2023/12/15 08:11:15;;;;;;;22.33;11.60;;;;;;;7.01;100.00;100844.84;5010886;28;20030;-70
2023/12/15 08:13:41;;;;;;;27.75;11.80;;;;;;;7.09;100.00;100846.16;5010605;28;20091;-69
2023/12/15 08:16:07;;;;;;;25.42;10.77;;;;;;;6.75;100.00;100790.34;5010681;28;20029;-69
2023/12/15 08:18:33;;;;;;;28.45;12.13;;;;;;;7.22;100.00;100866.59;5010832;28;20022;-69
2023/12/15 08:21:00;;;;;;;25.35;10.32;;;;;;;7.26;100.00;100878.84;5010695;28;20033;-69
2023/12/15 08:23:26;;;;;;;34.92;13.88;;;;;;;7.08;100.00;100844.41;5010453;28;20058;-69
2023/12/15 08:25:52;;;;;;;11.85;6.10;;;;;;;7.28;100.00;100884.94;5010490;28;20103;-69
2023/12/15 08:28:19;;;;;;;8.68;4.68;;;;;;;7.09;100.00;100849.63;5008447;28;20501;-69
2023/12/15 08:30:46;;;;;;;9.23;6.97;;;;;;;7.27;100.00;100884.84;5010758;28;20046;-69
2023/12/15 08:33:11;;;;;;;13.73;10.40;;;;;;;7.27;100.00;100874.59;5010636;28;20036;-69
2023/12/15 08:35:37;;;;;;;11.23;8.65;;;;;;;7.22;100.00;100868.31;5010573;28;20037;-70
2023/12/15 08:38:03;;;;;;;9.32;5.97;;;;;;;7.32;100.00;100883.44;5010225;28;20511;-69
2023/12/15 08:40:28;;;;;;;7.22;5.00;;;;;;;7.31;100.00;100902.19;5010429;28;20022;-69
2023/12/15 08:42:54;;;;;;;7.47;4.47;;;;;;;7.31;100.00;100909.03;5010642;28;20499;-69
2023/12/15 08:45:20;;;;;;;7.60;4.50;;;;;;;7.23;100.00;100906.03;5010440;28;20022;-69
2023/12/15 08:47:46;;;;;;;7.32;4.20;;;;;;;7.37;100.00;100919.66;5008294;28;20044;-69
2023/12/15 08:50:11;;;;;;;9.18;5.68;;;;;;;7.32;100.00;100931.34;5010415;28;20443;-69
2023/12/15 08:52:37;;;;;;;11.20;9.02;;;;;;;7.33;100.00;100930.53;5010565;28;20026;-69
2023/12/15 08:55:02;;;;;;;10.13;8.13;;;;;;;7.35;100.00;100945.25;5010636;28;20480;-69
2023/12/15 08:57:28;;;;;;;11.82;9.35;;;;;;;7.32;100.00;100946.75;5010710;28;20029;-69
2023/12/15 08:59:54;;;;;;;10.48;7.90;;;;;;;7.29;100.00;100942.34;5013965;28;20464;-69
2023/12/15 09:02:20;;;;;;;12.95;8.75;;;;;;;7.35;100.00;100940.13;5014170;28;20026;-69
2023/12/15 09:04:46;;;;;;;13.48;8.40;;;;;;;7.24;100.00;100908.69;5013864;28;20550;-69
2023/12/15 09:07:11;;;;;;;12.00;7.95;;;;;;;7.39;100.00;100934.34;5013457;28;20049;-69
2023/12/15 09:09:38;;;;;;;12.20;8.82;;;;;;;7.37;100.00;100924.78;5014222;28;20029;-70
2023/12/15 09:12:04;;;;;;;11.52;7.85;;;;;;;7.41;100.00;100930.19;5014078;28;20065;-69
2023/12/15 09:14:30;;;;;;;13.00;7.97;;;;;;;7.42;100.00;100921.66;5011446;28;20040;-69
2023/12/15 09:16:56;;;;;;;12.18;8.52;;;;;;;7.41;100.00;100913.88;5010988;28;20033;-70
2023/12/15 09:19:24;;;;;;;23.02;14.27;;;;;;;7.37;100.00;100910.25;5013116;28;20690;-69
2023/12/15 09:21:50;;;;;;;14.57;11.75;;;;;;;7.41;100.00;100912.22;5013160;28;20026;-69
2023/12/15 09:24:17;;;;;;;10.38;7.57;;;;;;;7.42;100.00;100915.66;5013213;28;20073;-69
2023/12/15 09:26:44;;;;;;;11.07;7.18;;;;;;;7.29;100.00;100901.25;4996046;28;20027;-69
2023/12/15 09:29:10;;;;;;;10.50;7.07;;;;;;;7.27;100.00;100911.41;5007653;28;20076;-69
2023/12/15 09:31:36;;;;;;;10.90;7.07;;;;;;;7.23;100.00;100921.44;5012420;28;20030;-69
2023/12/15 09:34:01;;;;;;;10.35;5.95;;;;;;;7.19;100.00;100924.59;5013285;28;20033;-70
2023/12/15 09:36:27;;;;;;;8.18;6.25;;;;;;;7.20;100.00;100924.72;5006382;28;20097;-69
2023/12/15 09:38:53;;;;;;;8.77;5.45;;;;;;;7.19;100.00;100932.31;4993246;28;20030;-69
2023/12/15 09:41:19;;;;;;;9.25;4.93;;;;;;;7.15;100.00;100941.50;4993295;28;20081;-69
2023/12/15 09:43:45;;;;;;;7.30;5.22;;;;;;;7.15;100.00;100951.78;4992889;28;20038;-69
2023/12/15 09:46:11;;;;;;;8.15;4.93;;;;;;;6.76;100.00;100877.66;4993121;28;20022;-69
2023/12/15 09:48:37;;;;;;;8.02;5.03;;;;;;;7.15;100.00;100946.66;4992922;28;20037;-69
2023/12/15 09:51:07;;;;;;;7.53;4.97;;;;;;;6.83;100.00;100898.56;4993035;28;20404;-69
2023/12/15 09:53:35;;;;;;;10.63;5.97;;;;;;;7.09;100.00;100936.00;4990738;28;20053;-69
2023/12/15 09:56:01;;;;;;;7.35;4.28;;;;;;;7.09;100.00;100949.75;4993368;28;20038;-69
2023/12/15 09:58:26;;;;;;;7.13;3.67;;;;;;;7.09;100.00;100951.41;4993044;28;20125;-69
2023/12/15 10:00:52;;;;;;;7.20;3.78;;;;;;;7.11;100.00;100950.72;4992977;28;20858;-69
2023/12/15 10:03:17;;;;;;;13.48;6.18;;;;;;;7.08;100.00;100950.53;4992767;28;20034;-70
2023/12/15 10:05:43;;;;;;;11.45;6.80;;;;;;;7.13;100.00;100944.00;4992920;28;20091;-69
2023/12/15 10:08:08;;;;;;;14.15;6.65;;;;;;;7.16;100.00;100943.28;4992689;28;20413;-70
2023/12/15 10:10:34;;;;;;;14.18;8.40;;;;;;;7.18;100.00;100934.00;4992827;28;20101;-69
2023/12/15 10:13:00;;;;;;;11.57;6.45;;;;;;;7.11;100.00;100935.31;4992756;28;20026;-70
2023/12/15 10:15:27;;;;;;;13.18;7.90;;;;;;;7.11;100.00;100944.72;4992462;28;20045;-69
2023/12/15 10:17:54;;;;;;;9.70;5.88;;;;;;;7.13;100.00;100954.28;4992565;28;20034;-69
2023/12/15 10:20:20;;;;;;;10.02;5.10;;;;;;;7.08;100.00;100962.50;5007595;28;20034;-70
2023/12/15 10:22:46;;;;;;;8.05;4.85;;;;;;;7.03;100.00;100969.03;5000098;28;20038;-69
2023/12/15 10:25:16;;;;;;;7.95;4.47;;;;;;;6.72;100.00;100908.19;5008668;28;20033;-70
2023/12/15 10:27:42;;;;;;;7.93;5.57;;;;;;;7.05;100.00;100954.63;5009468;28;20037;-70
2023/12/15 10:30:08;;;;;;;7.32;4.57;;;;;;;6.97;100.00;100942.22;5011668;28;20029;-70
2023/12/15 10:32:33;;;;;;;7.47;5.13;;;;;;;7.10;100.00;100968.59;5011659;28;20025;-69
2023/12/15 10:35:03;;;;;;;12.32;11.13;;;;;;;6.91;100.00;100944.41;5004043;28;20416;-69
2023/12/15 10:37:29;;;;;;;17.25;13.95;;;;;;;7.04;100.00;100963.09;5004544;28;20061;-70
2023/12/15 10:39:56;;;;;;;13.35;6.97;;;;;;;7.07;100.00;100974.44;5005967;28;20077;-70
2023/12/15 10:42:23;;;;;;;7.10;4.10;;;;;;;7.10;100.00;100979.78;5009321;28;20026;-71
2023/12/15 10:44:51;;;;;;;8.43;5.75;;;;;;;7.05;100.00;100980.28;5006139;28;20029;-69
2023/12/15 10:47:18;;;;;;;6.47;4.70;;;;;;;7.00;100.00;100976.56;5011831;28;20033;-69
2023/12/15 10:50:07;;;;;;;10.43;7.43;;;;;;;7.01;100.00;100975.78;5011841;28;20124;-71
2023/12/15 10:52:36;;;;;;;36.38;14.57;;;;;;;7.05;100.00;100982.84;5003708;28;20048;-70
2023/12/15 10:55:04;;;;;;;24.27;8.88;;;;;;;6.94;100.00;100977.06;4989504;28;20065;-71
2023/12/15 10:57:32;;;;;;;13.88;5.35;;;;;;;6.72;100.00;100957.84;5008753;28;20042;-71
2023/12/15 11:00:03;;;;;;;4.63;2.10;;;;;;;6.88;100.00;100986.97;5008762;28;20037;-70
2023/12/15 11:02:31;;;;;;;4.90;2.88;;;;;;;6.85;100.00;100997.94;5008564;28;20479;-70
2023/12/15 11:05:16;;;;;;;11.77;7.13;;;;;;;6.85;100.00;100999.63;5006859;28;20041;-70
2023/12/15 11:07:42;;;;;;;7.03;4.55;;;;;;;6.62;100.00;100958.06;5008659;28;20123;-70
2023/12/15 11:10:09;;;;;;;4.25;2.45;;;;;;;6.45;100.00;100954.47;5008577;28;20077;-69
2023/12/15 11:12:39;;;;;;;10.13;6.43;;;;;;;6.59;100.00;100994.69;4975474;28;20046;-69
2023/12/15 11:15:13;;;;;;;9.73;5.10;;;;;;;6.63;100.00;101009.47;5008492;28;20499;-69